createdAt,value
2023-04-01T00:00:39.594Z,60.13
2023-04-01T00:03:08.141Z,60.06
2023-04-01T00:05:36.258Z,60.19
2023-04-01T00:08:04.254Z,60.15
2023-04-01T00:10:32.289Z,60.09
2023-04-01T00:13:04.106Z,60.22
2023-04-01T00:15:32.503Z,60.15
2023-04-01T00:18:01.862Z,60.05
2023-04-01T00:20:30.143Z,59.99
2023-04-01T00:22:58.316Z,59.96
2023-04-01T00:25:26.797Z,60.14
2023-04-01T00:27:54.815Z,60.62
2023-04-01T00:30:24.304Z,60.48
2023-04-01T00:32:54.183Z,60.32
2023-04-01T00:35:23.433Z,60.28
2023-04-01T00:37:51.913Z,60.24
2023-04-01T00:40:27.804Z,60.06
2023-04-01T00:42:56.458Z,60.23
2023-04-01T00:45:36.240Z,59.96
2023-04-01T00:48:08.014Z,60.22
2023-04-01T00:50:37.874Z,60.19
2023-04-01T00:53:07.698Z,60.21
2023-04-01T00:55:39.144Z,60.22
2023-04-01T00:58:11.085Z,60.11
2023-04-01T01:00:40.960Z,60.02
2023-04-01T01:03:09.070Z,59.96
2023-04-01T01:05:50.133Z,59.67
2023-04-01T01:08:27.595Z,59.70
2023-04-01T01:10:55.657Z,59.95
2023-04-01T01:13:31.267Z,59.66
2023-04-01T01:16:06.772Z,59.69
2023-04-01T01:18:41.418Z,59.79
2023-04-01T01:21:44.205Z,59.70
2023-04-01T01:24:39.244Z,59.77
2023-04-01T01:27:09.814Z,59.86
2023-04-01T01:30:13.164Z,59.70
2023-04-01T01:32:55.899Z,59.74
2023-04-01T01:35:30.433Z,59.80
2023-04-01T01:38:02.672Z,59.81
2023-04-01T01:40:33.605Z,59.90
2023-04-01T01:43:07.266Z,59.84
2023-04-01T01:45:39.657Z,59.90
2023-04-01T01:48:10.384Z,59.85
2023-04-01T01:50:42.092Z,59.80
2023-04-01T01:53:14.503Z,59.70
2023-04-01T01:55:44.505Z,59.86
2023-04-01T01:58:18.216Z,59.74
2023-04-01T02:00:51.175Z,59.73
2023-04-01T02:03:20.611Z,59.74
2023-04-01T02:05:50.619Z,59.73
2023-04-01T02:08:22.348Z,59.74
2023-04-01T02:10:57.471Z,59.68
2023-04-01T02:13:31.732Z,59.93
2023-04-01T02:16:05.867Z,60.00
2023-04-01T02:18:37.159Z,59.96
2023-04-01T02:21:08.105Z,59.90
2023-04-01T02:23:38.828Z,59.95
2023-04-01T02:26:08.784Z,59.91
2023-04-01T02:28:40.430Z,59.86
2023-04-01T02:31:11.886Z,59.83
2023-04-01T02:33:41.287Z,59.95
2023-04-01T02:36:14.423Z,59.72
2023-04-01T02:38:43.911Z,59.78
2023-04-01T02:41:11.984Z,59.77
2023-04-01T02:43:40.260Z,59.80
2023-04-01T02:46:08.784Z,59.81
2023-04-01T02:48:36.943Z,59.78
2023-04-01T02:51:05.453Z,59.70
2023-04-01T02:53:34.879Z,59.79
2023-04-01T02:56:02.965Z,59.87
2023-04-01T02:58:31.083Z,59.93
2023-04-01T03:00:59.140Z,59.90
2023-04-01T03:03:27.282Z,59.89
2023-04-01T03:05:56.970Z,59.77
2023-04-01T03:08:25.253Z,59.81
2023-04-01T03:10:54.631Z,60.06
2023-04-01T03:13:22.747Z,59.93
2023-04-01T03:15:50.835Z,59.99
2023-04-01T03:18:18.889Z,59.90
2023-04-01T03:20:47.329Z,60.11
2023-04-01T03:23:17.507Z,60.18
2023-04-01T03:25:45.561Z,60.12
2023-04-01T03:28:15.417Z,60.08
2023-04-01T03:30:43.583Z,60.15
2023-04-01T03:33:12.122Z,60.38
2023-04-01T03:35:40.177Z,60.62
2023-04-01T03:38:08.257Z,60.62
2023-04-01T03:40:38.295Z,60.55
2023-04-01T03:43:09.367Z,60.74
2023-04-01T03:45:45.974Z,60.31
2023-04-01T03:48:15.043Z,60.36
2023-04-01T03:50:43.039Z,60.44
2023-04-01T03:53:11.538Z,60.43
2023-04-01T03:55:42.965Z,60.41
2023-04-01T03:58:11.535Z,60.51
2023-04-01T04:00:40.996Z,60.41
2023-04-01T04:03:09.294Z,60.27
2023-04-01T04:05:37.896Z,60.12
2023-04-01T04:08:06.188Z,60.05
2023-04-01T04:10:37.169Z,60.06
2023-04-01T04:13:05.205Z,59.96
2023-04-01T04:15:37.908Z,59.90
2023-04-01T04:18:07.772Z,59.99
2023-04-01T04:20:36.058Z,60.02
2023-04-01T04:23:04.183Z,60.02
2023-04-01T04:25:33.483Z,60.02
2023-04-01T04:28:02.222Z,60.02
2023-04-01T04:30:30.315Z,60.02
2023-04-01T04:32:58.398Z,59.99
2023-04-01T04:35:27.880Z,59.92
2023-04-01T04:37:55.987Z,60.02
2023-04-01T04:40:24.378Z,60.07
2023-04-01T04:42:52.408Z,60.01
2023-04-01T04:45:20.592Z,60.02
2023-04-01T04:47:55.481Z,59.97
2023-04-01T04:50:24.275Z,59.94
2023-04-01T04:52:53.764Z,59.96
2023-04-01T04:55:22.258Z,59.93
2023-04-01T04:57:58.102Z,59.99
2023-04-01T05:00:26.502Z,59.97
2023-04-01T05:02:58.868Z,59.93
2023-04-01T05:05:26.977Z,59.94
2023-04-01T05:07:56.447Z,59.96
2023-04-01T05:10:24.472Z,59.92
2023-04-01T05:12:52.713Z,59.99
2023-04-01T05:15:23.573Z,59.97
2023-04-01T05:17:52.586Z,60.03
2023-04-01T05:20:20.960Z,59.97
2023-04-01T05:22:49.044Z,60.04
2023-04-01T05:25:18.828Z,60.09
2023-04-01T05:27:46.881Z,60.22
2023-04-01T05:30:15.090Z,60.20
2023-04-01T05:33:15.757Z,60.12
2023-04-01T05:35:43.965Z,60.07
2023-04-01T05:38:14.844Z,59.93
2023-04-01T05:40:44.583Z,59.83
2023-04-01T05:43:12.815Z,59.86
2023-04-01T05:45:41.446Z,59.92
2023-04-01T05:48:12.090Z,59.86
2023-04-01T05:50:42.931Z,59.90
2023-04-01T05:53:12.530Z,59.85
2023-04-01T05:55:45.192Z,59.99
2023-04-01T05:58:13.388Z,59.96
2023-04-01T06:00:44.480Z,60.23
2023-04-01T06:03:14.007Z,60.35
2023-04-01T06:05:43.291Z,60.41
2023-04-01T06:08:19.628Z,60.14
2023-04-01T06:11:04.428Z,60.06
2023-04-01T06:13:49.618Z,59.79
2023-04-01T06:16:24.335Z,59.93
2023-04-01T06:19:14.672Z,59.71
2023-04-01T06:22:03.489Z,59.61
2023-04-01T06:24:55.665Z,59.81
2023-04-01T06:27:39.053Z,59.83
2023-04-01T06:30:27.194Z,59.80
2023-04-01T06:33:08.723Z,59.76
2023-04-01T06:35:58.063Z,59.97
2023-04-01T06:38:44.092Z,59.58
2023-04-01T06:41:35.640Z,59.57
2023-04-01T06:44:20.020Z,59.70
2023-04-01T06:47:18.448Z,59.70
2023-04-01T06:50:25.919Z,59.66
2023-04-01T06:53:03.273Z,59.71
2023-04-01T06:55:54.055Z,59.83
2023-04-01T06:58:50.480Z,59.70
2023-04-01T07:01:24.718Z,59.50
2023-04-01T07:03:57.904Z,59.81
2023-04-01T07:06:32.907Z,59.73
2023-04-01T07:09:07.376Z,59.51
2023-04-01T07:11:58.841Z,59.48
2023-04-01T07:15:08.125Z,59.35
2023-04-01T07:17:41.353Z,59.32
2023-04-01T07:20:18.089Z,59.38
2023-04-01T07:22:50.333Z,59.85
2023-04-01T07:25:31.031Z,59.80
2023-04-01T07:28:19.448Z,59.64
2023-04-01T07:31:09.532Z,59.40
2023-04-01T07:33:43.564Z,59.12
2023-04-01T07:36:18.966Z,58.99
2023-04-01T07:38:59.198Z,59.04
2023-04-01T07:41:54.221Z,58.71
2023-04-01T07:44:30.051Z,58.71
2023-04-01T07:47:11.028Z,58.58
2023-04-01T07:49:53.417Z,58.35
2023-04-01T07:52:27.616Z,58.56
2023-04-01T07:55:08.140Z,58.51
2023-04-01T07:57:44.459Z,58.09
2023-04-01T08:00:21.271Z,58.12
2023-04-01T08:03:22.049Z,58.00
2023-04-01T08:05:58.326Z,57.81
2023-04-01T08:08:38.621Z,57.96
2023-04-01T08:11:36.724Z,58.11
2023-04-01T08:14:31.212Z,58.50
2023-04-01T08:17:29.611Z,57.87
2023-04-01T08:20:09.827Z,57.90
2023-04-01T08:22:43.808Z,57.61
2023-04-01T08:25:24.200Z,57.39
2023-04-01T08:27:58.950Z,57.22
2023-04-01T08:30:31.247Z,57.47
2023-04-01T08:33:07.933Z,56.68
2023-04-01T08:35:43.261Z,56.53
2023-04-01T08:38:19.262Z,56.57
2023-04-01T08:40:59.552Z,56.71
2023-04-01T08:44:17.883Z,56.15
2023-04-01T08:47:20.976Z,54.71
2023-04-01T08:50:21.847Z,55.10
2023-04-01T08:53:05.852Z,55.71
2023-04-01T08:55:42.965Z,55.90
2023-04-01T08:58:54.553Z,55.94
2023-04-01T09:01:59.389Z,56.21
2023-04-01T09:05:08.266Z,56.06
2023-04-01T09:07:47.759Z,56.22
2023-04-01T09:10:51.796Z,56.30
2023-04-01T09:14:12.156Z,56.77
2023-04-01T09:17:19.421Z,56.38
2023-04-01T09:20:22.441Z,56.61
2023-04-01T09:23:04.715Z,56.11
2023-04-01T09:25:52.569Z,56.41
2023-04-01T09:28:22.255Z,56.74
2023-04-01T09:31:11.586Z,56.25
2023-04-01T09:34:24.555Z,56.52
2023-04-01T09:37:22.960Z,56.67
2023-04-01T09:40:19.281Z,57.00
2023-04-01T09:43:30.347Z,57.17
2023-04-01T09:46:18.714Z,56.84
2023-04-01T09:49:16.962Z,56.80
2023-04-01T09:51:57.979Z,56.68
2023-04-01T09:54:51.793Z,56.38
2023-04-01T09:57:51.246Z,56.60
2023-04-01T10:01:26.855Z,57.06
2023-04-01T10:07:21.317Z,57.03
2023-04-01T10:10:25.964Z,56.93
2023-04-01T10:13:36.924Z,56.71
2023-04-01T10:16:27.691Z,56.91
2023-04-01T10:19:31.695Z,56.80
2023-04-01T10:22:35.966Z,56.66
2023-04-01T10:25:43.769Z,56.07
2023-04-01T10:28:50.034Z,56.66
2023-04-01T10:32:30.583Z,55.94
2023-04-01T10:35:21.142Z,55.88
2023-04-01T10:38:30.007Z,55.62
2023-04-01T10:41:30.566Z,55.55
2023-04-01T10:44:48.166Z,55.78
2023-04-01T10:47:56.505Z,55.93
2023-04-01T10:50:38.274Z,55.83
2023-04-01T10:53:51.369Z,55.57
2023-04-01T10:56:57.350Z,55.36
2023-04-01T11:00:20.922Z,55.73
2023-04-01T11:03:46.231Z,55.31
2023-04-01T11:07:22.846Z,55.49
2023-04-01T11:10:42.653Z,55.16
2023-04-01T11:14:01.690Z,55.44
2023-04-01T11:16:58.095Z,55.57
2023-04-01T11:20:08.102Z,55.97
2023-04-01T11:22:58.572Z,55.69
2023-04-01T11:25:49.038Z,55.84
2023-04-01T11:29:11.894Z,54.85
2023-04-01T11:31:57.249Z,54.87
2023-04-01T11:34:49.414Z,53.87
2023-04-01T11:37:32.199Z,53.97
2023-04-01T11:40:46.885Z,54.02
2023-04-01T11:43:41.098Z,53.84
2023-04-01T11:46:32.577Z,53.69
2023-04-01T11:49:09.935Z,53.33
2023-04-01T11:51:57.932Z,53.68
2023-04-01T11:54:39.682Z,54.01
2023-04-01T11:57:32.589Z,53.91
2023-04-01T12:00:17.032Z,53.80
2023-04-01T12:03:02.481Z,52.57
2023-04-01T12:05:45.378Z,53.13
2023-04-01T12:08:23.568Z,53.72
2023-04-01T12:10:58.832Z,53.72
2023-04-01T12:13:37.441Z,53.57
2023-04-01T12:16:23.812Z,54.04
2023-04-01T12:18:58.919Z,54.39
2023-04-01T12:21:35.522Z,54.28
2023-04-01T12:24:32.365Z,54.39
2023-04-01T12:27:39.980Z,54.33
2023-04-01T12:30:30.695Z,54.55
2023-04-01T12:33:11.753Z,54.44
2023-04-01T12:35:54.860Z,54.44
2023-04-01T12:38:33.727Z,54.77
2023-04-01T12:41:23.840Z,54.91
2023-04-01T12:44:35.449Z,55.08
2023-04-01T12:47:31.953Z,55.11
2023-04-01T12:50:28.495Z,55.06
2023-04-01T12:53:08.594Z,55.06
2023-04-01T12:55:41.821Z,54.94
2023-04-01T12:58:39.363Z,55.09
2023-04-01T13:01:44.189Z,55.19
2023-04-01T13:05:13.453Z,55.78
2023-04-01T13:08:10.005Z,55.66
2023-04-01T13:10:55.682Z,55.47
2023-04-01T13:13:56.864Z,55.30
2023-04-01T13:16:28.496Z,56.03
2023-04-01T13:19:01.900Z,55.84
2023-04-01T13:21:46.087Z,55.34
2023-04-01T13:24:26.945Z,54.80
2023-04-01T13:27:04.374Z,55.00
2023-04-01T13:29:37.106Z,54.87
2023-04-01T13:32:27.711Z,54.77
2023-04-01T13:35:25.771Z,55.03
2023-04-01T13:38:10.846Z,54.93
2023-04-01T13:40:59.520Z,55.37
2023-04-01T13:43:37.082Z,54.71
2023-04-01T13:46:25.157Z,54.69
2023-04-01T13:49:27.182Z,54.15
2023-04-01T13:52:09.006Z,54.65
2023-04-01T13:54:54.268Z,54.40
2023-04-01T13:57:38.663Z,54.46
2023-04-01T14:00:21.763Z,54.75
2023-04-01T14:03:01.861Z,54.40
2023-04-01T14:05:50.472Z,54.29
2023-04-01T14:08:29.256Z,54.38
2023-04-01T14:11:08.863Z,54.42
2023-04-01T14:13:43.245Z,54.59
2023-04-01T14:16:55.219Z,54.36
2023-04-01T14:19:32.304Z,54.55
2023-04-01T14:22:07.928Z,54.40
2023-04-01T14:24:55.166Z,54.33
2023-04-01T14:27:47.100Z,54.34
2023-04-01T14:30:42.681Z,53.49
2023-04-01T14:33:30.833Z,54.03
2023-04-01T14:36:18.744Z,54.08
2023-04-01T14:39:02.958Z,54.04
2023-04-01T14:41:44.418Z,54.06
2023-04-01T14:44:36.321Z,54.27
2023-04-01T14:47:22.570Z,54.49
2023-04-01T14:49:55.405Z,54.21
2023-04-01T14:52:30.080Z,54.26
2023-04-01T14:55:00.261Z,54.77
2023-04-01T14:57:31.421Z,54.74
2023-04-01T15:00:03.617Z,54.37
2023-04-01T15:02:53.772Z,54.23
2023-04-01T15:05:35.148Z,54.46
2023-04-01T15:08:19.424Z,54.28
2023-04-01T15:11:17.620Z,54.68
2023-04-01T15:14:09.283Z,54.50
2023-04-01T15:16:47.057Z,54.44
2023-04-01T15:19:25.722Z,54.78
2023-04-01T15:22:12.327Z,54.65
2023-04-01T15:24:49.813Z,55.39
2023-04-01T15:27:30.520Z,55.41
2023-04-01T15:30:24.798Z,55.20
2023-04-01T15:33:19.734Z,55.12
2023-04-01T15:35:56.632Z,55.02
2023-04-01T15:38:37.393Z,54.82
2023-04-01T15:41:16.304Z,55.16
2023-04-01T15:43:46.809Z,55.29
2023-04-01T15:46:42.335Z,55.07
2023-04-01T15:49:33.563Z,54.82
2023-04-01T15:52:10.102Z,55.44
2023-04-01T15:55:07.378Z,55.28
2023-04-01T15:57:46.932Z,54.78
2023-04-01T16:00:27.534Z,54.81
2023-04-01T16:03:13.395Z,55.20
2023-04-01T16:05:51.864Z,55.42
2023-04-01T16:08:45.624Z,55.26
2023-04-01T16:11:25.474Z,55.16
2023-04-01T16:14:04.815Z,55.20
2023-04-01T16:16:45.987Z,55.02
2023-04-01T16:19:33.136Z,55.17
2023-04-01T16:22:07.206Z,55.03
2023-04-01T16:24:38.073Z,55.03
2023-04-01T16:27:14.602Z,55.00
2023-04-01T16:29:49.001Z,55.03
2023-04-01T16:32:29.778Z,55.05
2023-04-01T16:35:06.847Z,55.05
2023-04-01T16:37:39.685Z,54.93
2023-04-01T16:40:18.785Z,54.67
2023-04-01T16:42:53.072Z,54.77
2023-04-01T16:45:35.146Z,54.52
2023-04-01T16:48:12.539Z,54.56
2023-04-01T16:50:54.566Z,54.61
2023-04-01T16:53:33.645Z,54.88
2023-04-01T16:56:12.894Z,54.65
2023-04-01T16:58:50.560Z,54.76
2023-04-01T17:01:24.470Z,55.12
2023-04-01T17:03:59.873Z,55.13
2023-04-01T17:06:37.101Z,54.94
2023-04-01T17:09:21.527Z,55.04
2023-04-01T17:11:56.305Z,55.13
2023-04-01T17:14:32.805Z,54.57
2023-04-01T17:17:22.186Z,54.58
2023-04-01T17:20:14.273Z,54.87
2023-04-01T17:22:50.858Z,55.21
2023-04-01T17:25:31.805Z,54.81
2023-04-01T17:28:07.646Z,55.00
2023-04-01T17:30:41.537Z,54.88
2023-04-01T17:33:25.190Z,54.81
2023-04-01T17:36:00.683Z,54.81
2023-04-01T17:38:56.187Z,54.59
2023-04-01T17:41:35.363Z,54.46
2023-04-01T17:44:15.857Z,54.51
2023-04-01T17:46:59.929Z,54.46
2023-04-01T17:49:35.168Z,54.86
2023-04-01T17:52:14.877Z,54.79
2023-04-01T17:54:49.416Z,54.66
2023-04-01T17:57:36.341Z,54.50
2023-04-01T18:00:16.698Z,54.96
2023-04-01T18:02:57.138Z,54.62
2023-04-01T18:05:32.918Z,54.52
2023-04-01T18:08:17.503Z,54.58
2023-04-01T18:10:58.893Z,54.33
2023-04-01T18:13:42.790Z,54.38
2023-04-01T18:16:30.832Z,54.30
2023-04-01T18:19:10.069Z,54.19
2023-04-01T18:21:47.587Z,54.17
2023-04-01T18:24:23.292Z,54.24
2023-04-01T18:27:01.451Z,54.31
2023-04-01T18:29:39.765Z,54.25
2023-04-01T18:32:19.957Z,54.41
2023-04-01T18:35:01.932Z,54.44
2023-04-01T18:37:34.920Z,54.67
2023-04-01T18:40:14.888Z,54.46
2023-04-01T18:42:54.050Z,54.22
2023-04-01T18:45:29.159Z,54.26
2023-04-01T18:48:06.118Z,54.29
2023-04-01T18:50:43.167Z,54.24
2023-04-01T18:53:18.189Z,54.46
2023-04-01T18:55:51.783Z,54.40
2023-04-01T18:58:36.040Z,54.38
2023-04-01T19:01:17.489Z,54.01
2023-04-01T19:03:56.723Z,54.18
2023-04-01T19:06:31.518Z,53.76
2023-04-01T19:09:24.237Z,53.81
2023-04-01T19:12:20.410Z,54.17
2023-04-01T19:15:10.546Z,53.78
2023-04-01T19:17:50.440Z,53.73
2023-04-01T19:20:26.573Z,53.74
2023-04-01T19:23:37.467Z,53.89
2023-04-01T19:26:08.708Z,53.95
2023-04-01T19:28:45.953Z,53.59
2023-04-01T19:31:34.263Z,53.65
2023-04-01T19:34:16.261Z,53.55
2023-04-01T19:36:51.446Z,53.37
2023-04-01T19:39:36.763Z,53.61
2023-04-01T19:42:11.786Z,53.77
2023-04-01T19:44:49.890Z,53.74
2023-04-01T19:47:26.673Z,53.76
2023-04-01T19:50:04.752Z,53.56
2023-04-01T19:52:36.139Z,53.65
2023-04-01T19:55:16.149Z,53.57
2023-04-01T19:57:51.531Z,53.65
2023-04-01T20:00:28.070Z,53.35
2023-04-01T20:03:07.161Z,53.27
2023-04-01T20:05:53.582Z,53.31
2023-04-01T20:08:33.753Z,53.22
2023-04-01T20:11:14.135Z,53.16
2023-04-01T20:13:51.534Z,53.26
2023-04-01T20:16:20.542Z,53.23
2023-04-01T20:18:53.962Z,53.10
2023-04-01T20:21:36.107Z,52.87
2023-04-01T20:24:09.939Z,52.78
2023-04-01T20:26:43.677Z,52.97
2023-04-01T20:29:37.538Z,53.04
2023-04-01T20:32:13.110Z,52.72
2023-04-01T20:34:55.247Z,52.73
2023-04-01T20:37:34.602Z,52.61
2023-04-01T20:40:28.562Z,52.56
2023-04-01T20:43:35.617Z,52.78
2023-04-01T20:46:13.964Z,52.65
2023-04-01T20:49:14.927Z,52.82
2023-04-01T20:51:50.881Z,52.73
2023-04-01T20:54:42.465Z,52.36
2023-04-01T20:57:15.832Z,52.22
2023-04-01T21:00:11.206Z,52.20
2023-04-01T21:02:55.097Z,51.82
2023-04-01T21:05:42.461Z,51.97
2023-04-01T21:08:18.285Z,52.06
2023-04-01T21:10:57.989Z,52.12
2023-04-01T21:13:38.899Z,52.01
2023-04-01T21:16:22.095Z,51.50
2023-04-01T21:19:04.398Z,51.33
2023-04-01T21:21:49.304Z,51.49
2023-04-01T21:25:01.172Z,51.52
2023-04-01T21:27:41.409Z,51.27
2023-04-01T21:30:41.561Z,51.18
2023-04-01T21:33:37.670Z,51.16
2023-04-01T21:36:12.779Z,51.66
2023-04-01T21:38:54.880Z,51.46
2023-04-01T21:41:46.322Z,51.72
2023-04-01T21:44:43.566Z,52.10
2023-04-01T21:47:49.829Z,52.03
2023-04-01T21:50:53.094Z,52.14
2023-04-01T21:53:54.070Z,51.99
2023-04-01T21:56:59.941Z,52.11
2023-04-01T22:00:05.283Z,51.95
2023-04-01T22:03:26.119Z,52.02
2023-04-01T22:06:06.231Z,51.79
2023-04-01T22:08:55.769Z,51.37
2023-04-01T22:11:34.170Z,51.50
2023-04-01T22:14:08.610Z,51.17
2023-04-01T22:16:42.489Z,51.04
2023-04-01T22:19:21.076Z,50.26
2023-04-01T22:22:02.486Z,49.27
2023-04-01T22:24:39.341Z,49.58
2023-04-01T22:27:13.492Z,49.69
2023-04-01T22:29:54.292Z,49.37
2023-04-01T22:32:28.205Z,49.36
2023-04-01T22:35:08.851Z,49.18
2023-04-01T22:37:48.776Z,49.11
2023-04-01T22:40:26.188Z,49.11
2023-04-01T22:43:00.377Z,49.42
2023-04-01T22:45:48.018Z,49.24
2023-04-01T22:48:22.914Z,49.24
2023-04-01T22:50:57.694Z,49.31
2023-04-01T22:53:44.101Z,49.18
2023-04-01T22:56:17.764Z,49.09
2023-04-01T22:58:51.532Z,49.54
2023-04-01T23:01:25.801Z,49.69
2023-04-01T23:03:54.831Z,50.01
2023-04-01T23:06:28.992Z,50.07
2023-04-01T23:09:11.104Z,49.87
2023-04-01T23:11:46.619Z,50.23
2023-04-01T23:14:51.641Z,49.85
2023-04-01T23:17:42.843Z,50.22
2023-04-01T23:20:39.411Z,50.53
2023-04-01T23:23:20.378Z,50.53
2023-04-01T23:25:59.789Z,50.42
2023-04-01T23:28:50.566Z,50.36
2023-04-01T23:31:37.482Z,50.38
2023-04-01T23:34:25.291Z,50.52
2023-04-01T23:36:56.120Z,50.85
2023-04-01T23:39:28.947Z,51.00
2023-04-01T23:42:02.728Z,51.00
2023-04-01T23:44:31.813Z,51.18
2023-04-01T23:47:02.281Z,51.08
2023-04-01T23:49:35.713Z,51.21
2023-04-01T23:52:13.121Z,51.20
2023-04-01T23:54:45.963Z,51.27
2023-04-01T23:57:20.036Z,51.12
